sensor_id;sensor_type;location;lat;lon;timestamp;pressure;altitude;pressure_sealevel;temperature;humidity
37972;BME280;23794;48.234;8.344;2024-03-23T00:51:37;93665.19;;;8.89;75.02
37972;BME280;23794;48.234;8.344;2024-03-23T00:54:03;93659.28;;;8.94;75.05
37972;BME280;23794;48.234;8.344;2024-03-23T00:56:29;93652.91;;;9.05;74.49
37972;BME280;23794;48.234;8.344;2024-03-23T00:58:55;93657.91;;;9.17;74.10
37972;BME280;23794;48.234;8.344;2024-03-23T01:01:21;93649.66;;;9.21;74.36
37972;BME280;23794;48.234;8.344;2024-03-23T01:03:47;93642.19;;;9.25;73.91
37972;BME280;23794;48.234;8.344;2024-03-23T01:06:12;93647.28;;;9.26;74.61
37972;BME280;23794;48.234;8.344;2024-03-23T01:08:38;93643.75;;;9.26;74.82
37972;BME280;23794;48.234;8.344;2024-03-23T01:11:04;93643.38;;;9.24;74.80
37972;BME280;23794;48.234;8.344;2024-03-23T01:13:30;93637.59;;;9.18;75.28
37972;BME280;23794;48.234;8.344;2024-03-23T01:15:56;93625.06;;;9.21;75.26
37972;BME280;23794;48.234;8.344;2024-03-23T01:18:23;93627.31;;;9.29;74.78
37972;BME280;23794;48.234;8.344;2024-03-23T01:20:50;93624.16;;;9.38;74.70
37972;BME280;23794;48.234;8.344;2024-03-23T01:23:16;93615.94;;;9.38;75.21
37972;BME280;23794;48.234;8.344;2024-03-23T01:25:42;93613.84;;;9.50;74.58
37972;BME280;23794;48.234;8.344;2024-03-23T01:28:07;93623.41;;;9.69;74.10
37972;BME280;23794;48.234;8.344;2024-03-23T01:30:36;93604.06;;;9.83;73.65
37972;BME280;23794;48.234;8.344;2024-03-23T01:33:02;93606.28;;;9.92;73.65
37972;BME280;23794;48.234;8.344;2024-03-23T01:35:28;93613.59;;;10.02;73.03
37972;BME280;23794;48.234;8.344;2024-03-23T01:37:54;93610.75;;;10.09;73.09
37972;BME280;23794;48.234;8.344;2024-03-23T01:40:20;93611.50;;;10.14;73.33
37972;BME280;23794;48.234;8.344;2024-03-23T01:43:03;93596.53;;;10.18;73.11
37972;BME280;23794;48.234;8.344;2024-03-23T01:45:30;93598.03;;;10.23;72.84
37972;BME280;23794;48.234;8.344;2024-03-23T01:47:55;93590.53;;;10.31;71.93
37972;BME280;23794;48.234;8.344;2024-03-23T01:50:21;93590.34;;;10.41;71.71
37972;BME280;23794;48.234;8.344;2024-03-23T01:52:48;93572.56;;;10.53;71.78
37972;BME280;23794;48.234;8.344;2024-03-23T01:55:13;93580.41;;;10.51;71.91
37972;BME280;23794;48.234;8.344;2024-03-23T01:57:39;93565.44;;;10.60;70.59
37972;BME280;23794;48.234;8.344;2024-03-23T02:00:06;93577.44;;;10.66;69.81
37972;BME280;23794;48.234;8.344;2024-03-23T02:02:44;93564.81;;;10.72;69.81
37972;BME280;23794;48.234;8.344;2024-03-23T02:05:14;93559.28;;;10.76;69.77
37972;BME280;23794;48.234;8.344;2024-03-23T02:07:41;93563.09;;;10.82;69.25
37972;BME280;23794;48.234;8.344;2024-03-23T02:10:07;93556.78;;;10.85;69.05
37972;BME280;23794;48.234;8.344;2024-03-23T02:12:34;93550.81;;;10.90;68.83
37972;BME280;23794;48.234;8.344;2024-03-23T02:15:00;93550.81;;;10.90;69.54
37972;BME280;23794;48.234;8.344;2024-03-23T02:17:26;93542.31;;;10.84;69.55
37972;BME280;23794;48.234;8.344;2024-03-23T02:19:52;93538.97;;;10.73;70.22
37972;BME280;23794;48.234;8.344;2024-03-23T02:22:18;93539.09;;;10.66;70.46
37972;BME280;23794;48.234;8.344;2024-03-23T02:24:43;93532.50;;;10.63;70.07
37972;BME280;23794;48.234;8.344;2024-03-23T02:27:09;93533.50;;;10.73;69.77
37972;BME280;23794;48.234;8.344;2024-03-23T02:29:35;93527.75;;;10.87;69.66
37972;BME280;23794;48.234;8.344;2024-03-23T02:32:01;93532.41;;;10.91;69.69
37972;BME280;23794;48.234;8.344;2024-03-23T02:34:27;93532.47;;;10.87;69.18
37972;BME280;23794;48.234;8.344;2024-03-23T02:36:52;93531.63;;;10.90;69.58
37972;BME280;23794;48.234;8.344;2024-03-23T02:39:18;93530.81;;;10.93;69.37
37972;BME280;23794;48.234;8.344;2024-03-23T02:41:44;93531.16;;;10.95;69.56
37972;BME280;23794;48.234;8.344;2024-03-23T02:44:10;93521.53;;;10.87;69.02
37972;BME280;23794;48.234;8.344;2024-03-23T02:46:38;93523.84;;;10.88;69.10
37972;BME280;23794;48.234;8.344;2024-03-23T02:49:04;93523.78;;;10.92;68.87
37972;BME280;23794;48.234;8.344;2024-03-23T02:51:30;93528.41;;;10.95;68.50
37972;BME280;23794;48.234;8.344;2024-03-23T02:53:56;93532.34;;;10.94;68.36
37972;BME280;23794;48.234;8.344;2024-03-23T02:56:22;93524.97;;;10.91;68.18
37972;BME280;23794;48.234;8.344;2024-03-23T02:58:48;93530.09;;;10.89;68.09
37972;BME280;23794;48.234;8.344;2024-03-23T03:01:14;93529.31;;;10.88;67.84
37972;BME280;23794;48.234;8.344;2024-03-23T03:03:40;93521.88;;;10.89;67.47
37972;BME280;23794;48.234;8.344;2024-03-23T03:06:05;93516.59;;;10.78;68.00
37972;BME280;23794;48.234;8.344;2024-03-23T03:08:31;93515.25;;;10.66;68.15
37972;BME280;23794;48.234;8.344;2024-03-23T03:10:58;93504.69;;;10.65;67.92
37972;BME280;23794;48.234;8.344;2024-03-23T03:13:23;93500.31;;;10.47;68.20
37972;BME280;23794;48.234;8.344;2024-03-23T03:15:49;93492.28;;;10.36;68.79
37972;BME280;23794;48.234;8.344;2024-03-23T03:18:15;93494.34;;;10.29;68.82
37972;BME280;23794;48.234;8.344;2024-03-23T03:20:41;93487.38;;;10.24;68.52
37972;BME280;23794;48.234;8.344;2024-03-23T03:23:07;93492.97;;;10.17;68.79
37972;BME280;23794;48.234;8.344;2024-03-23T03:25:33;93495.00;;;10.13;68.77
37972;BME280;23794;48.234;8.344;2024-03-23T03:27:59;93492.31;;;10.09;68.02
37972;BME280;23794;48.234;8.344;2024-03-23T03:30:25;93491.59;;;10.05;67.86
37972;BME280;23794;48.234;8.344;2024-03-23T03:32:54;93483.69;;;10.10;67.22
37972;BME280;23794;48.234;8.344;2024-03-23T03:35:21;93480.47;;;10.16;67.24
37972;BME280;23794;48.234;8.344;2024-03-23T03:37:46;93472.75;;;10.10;68.02
37972;BME280;23794;48.234;8.344;2024-03-23T03:40:13;93475.06;;;10.12;67.78
37972;BME280;23794;48.234;8.344;2024-03-23T03:42:40;93452.84;;;10.10;67.81
37972;BME280;23794;48.234;8.344;2024-03-23T03:45:07;93446.22;;;10.07;68.33
37972;BME280;23794;48.234;8.344;2024-03-23T03:47:33;93440.47;;;10.02;68.68
37972;BME280;23794;48.234;8.344;2024-03-23T03:49:59;93445.63;;;9.96;68.13
37972;BME280;23794;48.234;8.344;2024-03-23T03:52:24;93438.97;;;9.97;67.42
37972;BME280;23794;48.234;8.344;2024-03-23T03:54:50;93420.41;;;10.08;67.52
37972;BME280;23794;48.234;8.344;2024-03-23T03:57:16;93427.28;;;10.17;67.58
37972;BME280;23794;48.234;8.344;2024-03-23T03:59:42;93427.78;;;10.12;67.55
37972;BME280;23794;48.234;8.344;2024-03-23T04:02:08;93413.97;;;10.19;66.47
37972;BME280;23794;48.234;8.344;2024-03-23T04:04:34;93409.94;;;10.27;67.06
37972;BME280;23794;48.234;8.344;2024-03-23T04:07:00;93401.72;;;10.27;66.59
37972;BME280;23794;48.234;8.344;2024-03-23T04:09:26;93389.56;;;10.28;66.24
37972;BME280;23794;48.234;8.344;2024-03-23T04:11:52;93405.63;;;10.26;65.98
37972;BME280;23794;48.234;8.344;2024-03-23T04:14:18;93404.16;;;10.21;66.87
37972;BME280;23794;48.234;8.344;2024-03-23T04:16:44;93386.53;;;10.22;66.87
37972;BME280;23794;48.234;8.344;2024-03-23T04:19:10;93383.88;;;10.19;67.43
37972;BME280;23794;48.234;8.344;2024-03-23T04:21:37;93373.34;;;10.17;67.37
37972;BME280;23794;48.234;8.344;2024-03-23T04:24:04;93369.34;;;10.22;67.28
37972;BME280;23794;48.234;8.344;2024-03-23T04:26:29;93371.88;;;10.13;68.67
37972;BME280;23794;48.234;8.344;2024-03-23T04:28:55;93354.25;;;10.14;67.04
37972;BME280;23794;48.234;8.344;2024-03-23T04:31:21;93359.81;;;10.30;66.38
37972;BME280;23794;48.234;8.344;2024-03-23T04:33:47;93361.78;;;10.30;67.19
37972;BME280;23794;48.234;8.344;2024-03-23T04:36:13;93357.84;;;10.31;67.12
37972;BME280;23794;48.234;8.344;2024-03-23T04:38:39;93347.19;;;10.36;67.17
37972;BME280;23794;48.234;8.344;2024-03-23T04:41:04;93336.31;;;10.33;67.07
37972;BME280;23794;48.234;8.344;2024-03-23T04:43:30;93342.97;;;10.32;67.77
37972;BME280;23794;48.234;8.344;2024-03-23T04:45:56;93333.50;;;10.36;66.90
37972;BME280;23794;48.234;8.344;2024-03-23T04:48:23;93331.47;;;10.40;67.03
37972;BME280;23794;48.234;8.344;2024-03-23T04:50:49;93332.09;;;10.48;65.99
37972;BME280;23794;48.234;8.344;2024-03-23T04:53:16;93334.72;;;10.55;66.50
37972;BME280;23794;48.234;8.344;2024-03-23T04:55:42;93344.03;;;10.58;66.03
37972;BME280;23794;48.234;8.344;2024-03-23T04:58:08;93348.19;;;10.66;66.10
37972;BME280;23794;48.234;8.344;2024-03-23T05:00:34;93364.19;;;10.68;65.90
37972;BME280;23794;48.234;8.344;2024-03-23T05:03:00;93374.34;;;10.67;68.49
37972;BME280;23794;48.234;8.344;2024-03-23T05:05:26;93381.50;;;10.41;72.23
37972;BME280;23794;48.234;8.344;2024-03-23T05:07:51;93418.56;;;9.78;76.81
37972;BME280;23794;48.234;8.344;2024-03-23T05:10:17;93436.06;;;9.26;79.12
37972;BME280;23794;48.234;8.344;2024-03-23T05:12:43;93461.22;;;8.79;81.44
37972;BME280;23794;48.234;8.344;2024-03-23T05:15:10;93432.69;;;8.49;81.69
37972;BME280;23794;48.234;8.344;2024-03-23T05:17:36;93446.59;;;8.24;84.22
37972;BME280;23794;48.234;8.344;2024-03-23T05:20:03;93467.94;;;7.83;85.20
37972;BME280;23794;48.234;8.344;2024-03-23T05:22:29;93459.13;;;7.68;85.83
37972;BME280;23794;48.234;8.344;2024-03-23T05:24:56;93478.66;;;7.52;86.12
37972;BME280;23794;48.234;8.344;2024-03-23T05:27:22;93472.50;;;7.41;86.48
37972;BME280;23794;48.234;8.344;2024-03-23T05:29:48;93448.31;;;7.43;86.04
37972;BME280;23794;48.234;8.344;2024-03-23T05:32:14;93468.22;;;7.40;86.38
37972;BME280;23794;48.234;8.344;2024-03-23T05:34:40;93475.59;;;7.39;86.25
37972;BME280;23794;48.234;8.344;2024-03-23T05:37:06;93467.41;;;7.43;85.64
37972;BME280;23794;48.234;8.344;2024-03-23T05:39:31;93473.31;;;7.31;86.09
37972;BME280;23794;48.234;8.344;2024-03-23T05:41:57;93499.78;;;7.30;86.16
37972;BME280;23794;48.234;8.344;2024-03-23T05:44:23;93504.91;;;7.21;86.58
37972;BME280;23794;48.234;8.344;2024-03-23T05:46:49;93496.38;;;7.12;86.80
37972;BME280;23794;48.234;8.344;2024-03-23T05:49:15;93491.25;;;7.24;86.02
37972;BME280;23794;48.234;8.344;2024-03-23T05:51:42;93497.91;;;7.16;86.13
37972;BME280;23794;48.234;8.344;2024-03-23T05:54:08;93511.13;;;7.18;86.12
37972;BME280;23794;48.234;8.344;2024-03-23T05:56:33;93512.72;;;7.08;86.00
37972;BME280;23794;48.234;8.344;2024-03-23T05:58:59;93518.91;;;7.12;85.92
37972;BME280;23794;48.234;8.344;2024-03-23T06:01:25;93509.59;;;7.09;85.98
37972;BME280;23794;48.234;8.344;2024-03-23T06:03:54;93512.31;;;7.09;86.81
37972;BME280;23794;48.234;8.344;2024-03-23T06:06:20;93518.97;;;7.01;86.58
37972;BME280;23794;48.234;8.344;2024-03-23T06:08:46;93516.63;;;7.07;85.96
37972;BME280;23794;48.234;8.344;2024-03-23T06:11:11;93517.41;;;7.07;85.97
37972;BME280;23794;48.234;8.344;2024-03-23T06:13:37;93518.53;;;7.14;85.75
37972;BME280;23794;48.234;8.344;2024-03-23T06:16:03;93528.69;;;6.99;85.51
37972;BME280;23794;48.234;8.344;2024-03-23T06:18:29;93525.63;;;6.86;87.52
37972;BME280;23794;48.234;8.344;2024-03-23T06:20:55;93532.28;;;6.81;86.59
37972;BME280;23794;48.234;8.344;2024-03-23T06:23:21;93526.41;;;6.86;86.79
37972;BME280;23794;48.234;8.344;2024-03-23T06:25:46;93541.19;;;6.85;86.49
37972;BME280;23794;48.234;8.344;2024-03-23T06:28:12;93545.09;;;6.73;87.41
37972;BME280;23794;48.234;8.344;2024-03-23T06:30:38;93562.59;;;6.69;87.79
37972;BME280;23794;48.234;8.344;2024-03-23T06:33:04;93584.00;;;6.81;88.07
37972;BME280;23794;48.234;8.344;2024-03-23T06:35:31;93581.28;;;6.77;87.71
37972;BME280;23794;48.234;8.344;2024-03-23T06:37:57;93601.50;;;6.66;86.94
37972;BME280;23794;48.234;8.344;2024-03-23T06:40:24;93596.44;;;6.46;86.42
37972;BME280;23794;48.234;8.344;2024-03-23T06:42:50;93604.63;;;6.35;85.70
37972;BME280;23794;48.234;8.344;2024-03-23T06:45:16;93602.28;;;6.41;85.10
37972;BME280;23794;48.234;8.344;2024-03-23T06:47:42;93603.44;;;6.29;85.38
37972;BME280;23794;48.234;8.344;2024-03-23T06:50:08;93606.94;;;6.29;85.71
37972;BME280;23794;48.234;8.344;2024-03-23T06:52:35;93613.16;;;6.34;85.79
37972;BME280;23794;48.234;8.344;2024-03-23T06:55:01;93622.91;;;6.42;84.55
37972;BME280;23794;48.234;8.344;2024-03-23T06:57:30;93602.69;;;6.36;84.20
37972;BME280;23794;48.234;8.344;2024-03-23T06:59:55;93615.09;;;6.33;84.90
37972;BME280;23794;48.234;8.344;2024-03-23T07:02:21;93621.72;;;6.36;84.68
37972;BME280;23794;48.234;8.344;2024-03-23T07:04:47;93626.78;;;6.30;83.08
37972;BME280;23794;48.234;8.344;2024-03-23T07:07:13;93640.75;;;6.28;82.94
37972;BME280;23794;48.234;8.344;2024-03-23T07:09:38;93659.81;;;6.25;83.07
37972;BME280;23794;48.234;8.344;2024-03-23T07:12:04;93653.56;;;6.24;83.26
37972;BME280;23794;48.234;8.344;2024-03-23T07:14:30;93657.03;;;6.18;83.15
37972;BME280;23794;48.234;8.344;2024-03-23T07:16:56;93677.25;;;6.09;83.84
37972;BME280;23794;48.234;8.344;2024-03-23T07:19:22;93656.66;;;6.08;83.56
37972;BME280;23794;48.234;8.344;2024-03-23T07:21:50;93672.97;;;6.05;84.27
37972;BME280;23794;48.234;8.344;2024-03-23T07:24:16;93680.75;;;6.10;84.25
37972;BME280;23794;48.234;8.344;2024-03-23T07:26:42;93676.00;;;5.92;83.77
37972;BME280;23794;48.234;8.344;2024-03-23T07:29:08;93683.38;;;5.81;84.52
37972;BME280;23794;48.234;8.344;2024-03-23T07:31:35;93688.00;;;5.73;83.97
37972;BME280;23794;48.234;8.344;2024-03-23T07:34:00;93699.94;;;5.54;84.25
37972;BME280;23794;48.234;8.344;2024-03-23T07:36:26;93687.88;;;5.44;83.34
37972;BME280;23794;48.234;8.344;2024-03-23T07:38:52;93707.56;;;5.27;83.61
37972;BME280;23794;48.234;8.344;2024-03-23T07:41:20;93717.66;;;5.30;83.70
37972;BME280;23794;48.234;8.344;2024-03-23T07:43:46;93724.38;;;4.95;85.33
37972;BME280;23794;48.234;8.344;2024-03-23T07:46:13;93733.69;;;4.94;84.86
37972;BME280;23794;48.234;8.344;2024-03-23T07:48:39;93738.41;;;5.00;84.36
37972;BME280;23794;48.234;8.344;2024-03-23T07:51:09;93754.94;;;4.84;85.84
37972;BME280;23794;48.234;8.344;2024-03-23T07:53:37;93750.16;;;4.70;85.54
37972;BME280;23794;48.234;8.344;2024-03-23T07:56:08;93757.97;;;4.76;85.00
37972;BME280;23794;48.234;8.344;2024-03-23T07:58:34;93769.81;;;4.57;85.48
37972;BME280;23794;48.234;8.344;2024-03-23T08:03:43;93769.84;;;4.60;84.61
37972;BME280;23794;48.234;8.344;2024-03-23T08:08:36;93799.16;;;4.47;85.19
37972;BME280;23794;48.234;8.344;2024-03-23T08:11:02;93813.47;;;4.48;85.25
37972;BME280;23794;48.234;8.344;2024-03-23T08:13:29;93827.94;;;4.25;84.50
37972;BME280;23794;48.234;8.344;2024-03-23T08:15:59;93847.53;;;4.42;85.75
37972;BME280;23794;48.234;8.344;2024-03-23T08:18:25;93851.59;;;4.59;84.92
37972;BME280;23794;48.234;8.344;2024-03-23T08:21:01;93865.97;;;4.63;84.93
37972;BME280;23794;48.234;8.344;2024-03-23T08:23:29;93876.91;;;4.70;85.05
37972;BME280;23794;48.234;8.344;2024-03-23T08:25:58;93887.50;;;4.82;84.12
37972;BME280;23794;48.234;8.344;2024-03-23T08:28:25;93881.03;;;4.94;84.08
37972;BME280;23794;48.234;8.344;2024-03-23T08:30:52;93889.19;;;4.98;82.85
37972;BME280;23794;48.234;8.344;2024-03-23T08:33:18;93883.53;;;5.07;82.40
37972;BME280;23794;48.234;8.344;2024-03-23T08:36:13;93883.16;;;5.12;82.05
37972;BME280;23794;48.234;8.344;2024-03-23T08:38:42;93863.88;;;5.24;81.95
37972;BME280;23794;48.234;8.344;2024-03-23T08:41:09;93870.06;;;5.21;80.91
37972;BME280;23794;48.234;8.344;2024-03-23T08:43:40;93880.59;;;5.26;81.60
37972;BME280;23794;48.234;8.344;2024-03-23T08:46:16;93890.81;;;5.40;81.22
37972;BME280;23794;48.234;8.344;2024-03-23T08:48:44;93900.97;;;5.50;80.06
37972;BME280;23794;48.234;8.344;2024-03-23T08:51:15;93913.31;;;5.41;79.58
37972;BME280;23794;48.234;8.344;2024-03-23T08:53:42;93916.38;;;5.36;82.11
37972;BME280;23794;48.234;8.344;2024-03-23T08:56:09;93926.50;;;5.42;81.93
37972;BME280;23794;48.234;8.344;2024-03-23T08:58:36;93928.94;;;5.51;80.94
37972;BME280;23794;48.234;8.344;2024-03-23T09:03:30;93925.59;;;5.27;81.66
37972;BME280;23794;48.234;8.344;2024-03-23T09:05:57;93936.56;;;5.00;81.50
37972;BME280;23794;48.234;8.344;2024-03-23T09:08:24;93942.44;;;4.72;79.71
37972;BME280;23794;48.234;8.344;2024-03-23T09:10:51;93956.97;;;4.57;79.58
37972;BME280;23794;48.234;8.344;2024-03-23T09:13:19;93964.69;;;4.54;80.50
37972;BME280;23794;48.234;8.344;2024-03-23T09:15:50;93955.88;;;4.61;80.40
37972;BME280;23794;48.234;8.344;2024-03-23T09:18:19;93953.56;;;4.63;80.97
37972;BME280;23794;48.234;8.344;2024-03-23T09:20:47;93946.47;;;4.85;80.79
37972;BME280;23794;48.234;8.344;2024-03-23T09:23:16;93943.59;;;5.05;79.93
37972;BME280;23794;48.234;8.344;2024-03-23T09:25:43;93949.22;;;5.23;79.30
37972;BME280;23794;48.234;8.344;2024-03-23T09:28:14;93939.59;;;5.29;79.05
37972;BME280;23794;48.234;8.344;2024-03-23T09:30:41;93944.34;;;5.40;80.72
37972;BME280;23794;48.234;8.344;2024-03-23T09:33:10;93937.56;;;5.60;79.29
37972;BME280;23794;48.234;8.344;2024-03-23T09:35:40;93945.44;;;5.76;79.27
37972;BME280;23794;48.234;8.344;2024-03-23T09:38:07;93936.22;;;5.92;78.87
37972;BME280;23794;48.234;8.344;2024-03-23T09:40:40;93931.31;;;6.12;78.59
37972;BME280;23794;48.234;8.344;2024-03-23T09:43:07;93925.91;;;6.16;77.46
37972;BME280;23794;48.234;8.344;2024-03-23T09:45:38;93918.50;;;6.12;79.47
37972;BME280;23794;48.234;8.344;2024-03-23T09:48:08;93924.34;;;6.14;79.27
37972;BME280;23794;48.234;8.344;2024-03-23T09:50:42;93913.56;;;6.33;77.34
37972;BME280;23794;48.234;8.344;2024-03-23T09:53:09;93918.66;;;6.45;76.78
37972;BME280;23794;48.234;8.344;2024-03-23T09:55:43;93906.03;;;7.00;78.38
37972;BME280;23794;48.234;8.344;2024-03-23T09:58:15;93908.06;;;7.28;75.93
37972;BME280;23794;48.234;8.344;2024-03-23T10:00:42;93906.06;;;7.14;74.27
37972;BME280;23794;48.234;8.344;2024-03-23T10:03:08;93911.94;;;7.23;75.53
37972;BME280;23794;48.234;8.344;2024-03-23T10:05:37;93894.84;;;7.34;74.81
37972;BME280;23794;48.234;8.344;2024-03-23T10:10:39;93895.66;;;7.74;73.52
37972;BME280;23794;48.234;8.344;2024-03-23T10:13:05;93894.47;;;8.04;73.24
37972;BME280;23794;48.234;8.344;2024-03-23T10:15:34;93893.28;;;8.05;71.53
37972;BME280;23794;48.234;8.344;2024-03-23T10:18:19;93890.50;;;8.30;70.35
37972;BME280;23794;48.234;8.344;2024-03-23T10:20:51;93904.16;;;8.27;69.98
37972;BME280;23794;48.234;8.344;2024-03-23T10:23:17;93901.91;;;7.56;68.24
37972;BME280;23794;48.234;8.344;2024-03-23T10:25:43;93910.31;;;6.97;70.64
37972;BME280;23794;48.234;8.344;2024-03-23T10:28:09;93914.88;;;6.64;73.78
37972;BME280;23794;48.234;8.344;2024-03-23T10:30:37;93914.31;;;6.29;71.99
37972;BME280;23794;48.234;8.344;2024-03-23T10:33:07;93916.59;;;6.17;73.55
37972;BME280;23794;48.234;8.344;2024-03-23T10:35:33;93919.34;;;6.20;73.59
37972;BME280;23794;48.234;8.344;2024-03-23T10:37:59;93919.25;;;6.09;75.35
37972;BME280;23794;48.234;8.344;2024-03-23T10:40:25;93914.09;;;5.93;76.19
37972;BME280;23794;48.234;8.344;2024-03-23T10:42:57;93911.81;;;5.99;76.30
37972;BME280;23794;48.234;8.344;2024-03-23T10:45:24;93912.09;;;5.83;70.86
37972;BME280;23794;48.234;8.344;2024-03-23T10:47:51;93921.59;;;5.59;73.21
37972;BME280;23794;48.234;8.344;2024-03-23T10:50:17;93918.44;;;5.49;73.70
37972;BME280;23794;48.234;8.344;2024-03-23T10:52:46;93938.75;;;5.25;73.44
37972;BME280;23794;48.234;8.344;2024-03-23T10:55:14;93927.09;;;5.21;74.16
37972;BME280;23794;48.234;8.344;2024-03-23T10:57:50;93930.25;;;5.27;75.38
37972;BME280;23794;48.234;8.344;2024-03-23T11:00:17;93938.28;;;5.16;75.68
37972;BME280;23794;48.234;8.344;2024-03-23T11:02:43;93943.56;;;5.01;76.06
37972;BME280;23794;48.234;8.344;2024-03-23T11:07:50;93949.44;;;4.73;75.65
37972;BME280;23794;48.234;8.344;2024-03-23T11:10:30;93960.81;;;4.25;76.52
37972;BME280;23794;48.234;8.344;2024-03-23T11:12:57;93962.91;;;3.82;77.86
37972;BME280;23794;48.234;8.344;2024-03-23T11:15:23;93963.63;;;3.55;79.59
37972;BME280;23794;48.234;8.344;2024-03-23T11:18:05;93978.44;;;3.15;79.76
37972;BME280;23794;48.234;8.344;2024-03-23T11:20:36;93986.94;;;2.94;80.89
37972;BME280;23794;48.234;8.344;2024-03-23T11:23:02;93989.06;;;2.65;80.43
37972;BME280;23794;48.234;8.344;2024-03-23T11:25:29;93987.22;;;2.69;80.65
37972;BME280;23794;48.234;8.344;2024-03-23T11:28:10;93991.47;;;2.70;81.39
37972;BME280;23794;48.234;8.344;2024-03-23T11:30:37;93998.38;;;2.68;80.66
37972;BME280;23794;48.234;8.344;2024-03-23T11:33:06;93998.97;;;2.77;81.59
37972;BME280;23794;48.234;8.344;2024-03-23T11:35:37;94003.59;;;2.96;81.86
37972;BME280;23794;48.234;8.344;2024-03-23T11:40:38;93993.88;;;3.34;81.62
37972;BME280;23794;48.234;8.344;2024-03-23T11:43:06;94006.34;;;3.42;79.81
37972;BME280;23794;48.234;8.344;2024-03-23T11:45:37;93985.91;;;3.68;81.90
37972;BME280;23794;48.234;8.344;2024-03-23T11:48:14;93976.78;;;4.30;80.18
37972;BME280;23794;48.234;8.344;2024-03-23T11:50:42;93981.44;;;4.60;79.24
37972;BME280;23794;48.234;8.344;2024-03-23T11:53:09;93981.59;;;4.71;77.58
37972;BME280;23794;48.234;8.344;2024-03-23T11:55:45;93977.19;;;4.93;77.13
37972;BME280;23794;48.234;8.344;2024-03-23T11:58:11;93978.06;;;5.39;77.87
37972;BME280;23794;48.234;8.344;2024-03-23T12:00:38;93953.38;;;6.00;77.46
37972;BME280;23794;48.234;8.344;2024-03-23T12:03:04;93959.03;;;6.32;75.91
37972;BME280;23794;48.234;8.344;2024-03-23T12:05:31;93957.63;;;6.60;74.66
37972;BME280;23794;48.234;8.344;2024-03-23T12:10:44;93954.97;;;6.71;73.12
37972;BME280;23794;48.234;8.344;2024-03-23T12:13:11;93947.94;;;6.70;72.39
37972;BME280;23794;48.234;8.344;2024-03-23T12:15:37;93937.53;;;6.93;75.46
37972;BME280;23794;48.234;8.344;2024-03-23T12:18:09;93935.53;;;6.80;72.06
37972;BME280;23794;48.234;8.344;2024-03-23T12:20:37;93928.13;;;6.73;72.22
37972;BME280;23794;48.234;8.344;2024-03-23T12:23:07;93928.66;;;7.11;72.39
37972;BME280;23794;48.234;8.344;2024-03-23T12:25:35;93927.88;;;7.11;70.62
37972;BME280;23794;48.234;8.344;2024-03-23T12:28:01;93935.31;;;7.28;73.58
37972;BME280;23794;48.234;8.344;2024-03-23T12:30:27;93927.56;;;7.45;71.43
37972;BME280;23794;48.234;8.344;2024-03-23T12:32:53;93921.72;;;7.43;71.87
37972;BME280;23794;48.234;8.344;2024-03-23T12:35:19;93915.13;;;7.83;70.22
37972;BME280;23794;48.234;8.344;2024-03-23T12:37:45;93902.25;;;8.06;70.08
37972;BME280;23794;48.234;8.344;2024-03-23T12:40:11;93890.16;;;8.21;70.09
37972;BME280;23794;48.234;8.344;2024-03-23T12:42:37;93885.47;;;8.18;66.67
37972;BME280;23794;48.234;8.344;2024-03-23T12:45:04;93887.81;;;8.09;65.19
37972;BME280;23794;48.234;8.344;2024-03-23T12:47:34;93880.34;;;8.38;65.87
37972;BME280;23794;48.234;8.344;2024-03-23T12:50:00;93870.59;;;8.44;63.66
37972;BME280;23794;48.234;8.344;2024-03-23T12:52:25;93855.00;;;8.38;62.48
37972;BME280;23794;48.234;8.344;2024-03-23T12:54:55;93851.16;;;8.24;64.29
37972;BME280;23794;48.234;8.344;2024-03-23T12:57:23;93852.31;;;8.27;63.84
37972;BME280;23794;48.234;8.344;2024-03-23T12:59:50;93863.31;;;7.87;64.46
37972;BME280;23794;48.234;8.344;2024-03-23T13:02:20;93880.06;;;7.42;67.11
37972;BME280;23794;48.234;8.344;2024-03-23T13:04:49;93890.91;;;7.20;66.78
37972;BME280;23794;48.234;8.344;2024-03-23T13:07:19;93888.53;;;6.93;68.56
37972;BME280;23794;48.234;8.344;2024-03-23T13:09:45;93906.38;;;6.76;69.10
37972;BME280;23794;48.234;8.344;2024-03-23T13:12:12;93903.94;;;6.57;70.21
37972;BME280;23794;48.234;8.344;2024-03-23T13:14:38;93898.03;;;6.37;71.49
37972;BME280;23794;48.234;8.344;2024-03-23T13:17:05;93902.94;;;6.06;70.01
37972;BME280;23794;48.234;8.344;2024-03-23T13:19:32;93899.22;;;5.76;70.89
37972;BME280;23794;48.234;8.344;2024-03-23T13:22:02;93892.56;;;5.66;72.12
37972;BME280;23794;48.234;8.344;2024-03-23T13:24:29;93883.59;;;6.25;72.83
37972;BME280;23794;48.234;8.344;2024-03-23T13:26:56;93867.81;;;6.56;71.24
37972;BME280;23794;48.234;8.344;2024-03-23T13:29:23;93871.78;;;6.91;71.49
37972;BME280;23794;48.234;8.344;2024-03-23T13:31:51;93863.31;;;7.40;72.46
37972;BME280;23794;48.234;8.344;2024-03-23T13:34:17;93860.59;;;7.29;68.43
37972;BME280;23794;48.234;8.344;2024-03-23T13:36:47;93864.81;;;7.05;68.36
37972;BME280;23794;48.234;8.344;2024-03-23T13:39:13;93853.16;;;7.22;70.02
37972;BME280;23794;48.234;8.344;2024-03-23T13:41:40;93851.66;;;7.57;71.21
37972;BME280;23794;48.234;8.344;2024-03-23T13:44:08;93852.41;;;7.76;71.65
37972;BME280;23794;48.234;8.344;2024-03-23T13:46:34;93843.06;;;7.84;67.30
37972;BME280;23794;48.234;8.344;2024-03-23T13:49:01;93841.88;;;8.00;68.65
37972;BME280;23794;48.234;8.344;2024-03-23T13:51:27;93827.03;;;8.08;69.65
37972;BME280;23794;48.234;8.344;2024-03-23T13:53:54;93832.84;;;8.25;71.70
37972;BME280;23794;48.234;8.344;2024-03-23T13:56:24;93820.72;;;8.40;67.76
37972;BME280;23794;48.234;8.344;2024-03-23T13:58:50;93822.06;;;8.81;66.65
37972;BME280;23794;48.234;8.344;2024-03-23T14:01:17;93811.28;;;8.52;66.70
37972;BME280;23794;48.234;8.344;2024-03-23T14:03:43;93804.53;;;8.71;66.46
37972;BME280;23794;48.234;8.344;2024-03-23T14:06:10;93801.75;;;8.86;64.69
37972;BME280;23794;48.234;8.344;2024-03-23T14:08:37;93800.97;;;8.85;61.93
37972;BME280;23794;48.234;8.344;2024-03-23T14:11:05;93795.25;;;8.61;62.76
37972;BME280;23794;48.234;8.344;2024-03-23T14:13:32;93798.88;;;8.29;64.67
37972;BME280;23794;48.234;8.344;2024-03-23T14:15:58;93810.75;;;7.50;61.96